Time;durP1;ratioP1;P1;durP2;ratioP2;P2;SDS_P1;SDS_P2;PMS_P1;PMS_P2;Temp;Humidity;BMP_temperature;BMP_pressure;BME280_temperature;BME280_humidity;BME280_pressure;Samples;Min_cycle;Max_cycle;Signal;HPM_P1;HPM_P2
2024/02/13 00:01:23;;;;;;;2.17;1.52;;;;;;;;;;4907270;29;20526;-74
2024/02/13 00:03:54;;;;;;;4.00;1.70;;;;;;;;;;4907094;29;20055;-75
2024/02/13 00:06:24;;;;;;;3.28;1.80;;;;;;;;;;4907387;29;20497;-76
2024/02/13 00:08:55;;;;;;;6.93;2.08;;;;;;;;;;4905854;29;20051;-75
2024/02/13 00:11:25;;;;;;;2.75;1.85;;;;;;;;;;4907545;29;20063;-77
2024/02/13 00:13:56;;;;;;;7.15;3.08;;;;;;;;;;4907476;29;20067;-74
2024/02/13 00:16:27;;;;;;;6.47;3.70;;;;;;;;;;4906361;29;20517;-74
2024/02/13 00:19:01;;;;;;;5.55;3.00;;;;;;;;;;4906472;29;20063;-75
2024/02/13 00:21:33;;;;;;;9.48;2.03;;;;;;;;;;4906978;29;20059;-75
2024/02/13 00:24:05;;;;;;;4.90;1.90;;;;;;;;;;4905838;29;20530;-75
2024/02/13 00:26:36;;;;;;;7.90;2.33;;;;;;;;;;4907004;29;20419;-74
2024/02/13 00:29:07;;;;;;;5.72;2.15;;;;;;;;;;4908065;29;20047;-74
2024/02/13 00:31:38;;;;;;;5.40;2.20;;;;;;;;;;4907143;29;20393;-75
2024/02/13 00:34:09;;;;;;;3.78;1.90;;;;;;;;;;4906274;29;20063;-75
2024/02/13 00:36:39;;;;;;;2.92;2.00;;;;;;;;;;4906175;29;20055;-75
2024/02/13 00:39:11;;;;;;;3.17;1.90;;;;;;;;;;4906010;29;20052;-73
2024/02/13 00:41:41;;;;;;;6.63;2.28;;;;;;;;;;4906504;29;20610;-74
2024/02/13 00:44:14;;;;;;;5.57;2.15;;;;;;;;;;4906127;29;20716;-73
2024/02/13 00:46:45;;;;;;;3.22;1.60;;;;;;;;;;4905733;29;20508;-73
2024/02/13 00:49:17;;;;;;;1.90;1.55;;;;;;;;;;4906403;29;20063;-74
2024/02/13 00:51:48;;;;;;;2.78;2.10;;;;;;;;;;4906592;29;20669;-73
2024/02/13 00:54:19;;;;;;;3.15;1.40;;;;;;;;;;4906684;29;20062;-74
2024/02/13 00:56:52;;;;;;;4.85;1.80;;;;;;;;;;4906416;29;20048;-73
2024/02/13 00:59:26;;;;;;;2.67;1.70;;;;;;;;;;4906155;29;20133;-73
2024/02/13 01:01:58;;;;;;;2.35;1.65;;;;;;;;;;4906797;29;20052;-73
2024/02/13 01:04:29;;;;;;;3.00;1.67;;;;;;;;;;4906350;29;20040;-74
2024/02/13 01:06:59;;;;;;;2.45;1.50;;;;;;;;;;4906298;29;20052;-74
2024/02/13 01:09:30;;;;;;;3.70;1.73;;;;;;;;;;4906612;29;20043;-72
2024/02/13 01:12:03;;;;;;;7.85;1.80;;;;;;;;;;4906883;29;20507;-73
2024/02/13 01:14:34;;;;;;;1.70;1.60;;;;;;;;;;4906514;29;20047;-74
2024/02/13 01:17:06;;;;;;;3.10;1.35;;;;;;;;;;4906156;29;20060;-73
2024/02/13 01:19:36;;;;;;;2.25;1.60;;;;;;;;;;4906135;29;20052;-75
2024/02/13 01:22:07;;;;;;;4.63;1.55;;;;;;;;;;4905681;29;20048;-73
2024/02/13 01:24:37;;;;;;;3.60;1.88;;;;;;;;;;4906298;29;20063;-73
2024/02/13 01:27:08;;;;;;;2.47;1.40;;;;;;;;;;4906098;29;20052;-73
2024/02/13 01:29:39;;;;;;;3.05;1.50;;;;;;;;;;4905851;29;20056;-72
2024/02/13 01:32:10;;;;;;;2.78;1.90;;;;;;;;;;4905669;29;20431;-74
2024/02/13 01:34:42;;;;;;;1.75;1.40;;;;;;;;;;4905687;29;20511;-74
2024/02/13 01:37:12;;;;;;;1.58;1.40;;;;;;;;;;4906960;29;20496;-74
2024/02/13 01:39:43;;;;;;;5.28;1.83;;;;;;;;;;4910236;29;20059;-73
2024/02/13 01:42:14;;;;;;;3.90;1.90;;;;;;;;;;4909502;29;20420;-73
2024/02/13 01:44:45;;;;;;;2.42;1.60;;;;;;;;;;4909184;29;20052;-74
2024/02/13 01:47:15;;;;;;;2.58;1.52;;;;;;;;;;4909940;29;20515;-74
2024/02/13 01:49:48;;;;;;;3.65;1.63;;;;;;;;;;4908513;29;20078;-75
2024/02/13 01:52:19;;;;;;;5.63;2.00;;;;;;;;;;4909914;29;20873;-74
2024/02/13 01:54:54;;;;;;;6.38;2.00;;;;;;;;;;4909997;29;20407;-74
2024/02/13 01:57:26;;;;;;;3.95;1.80;;;;;;;;;;4909350;29;20602;-76
2024/02/13 01:59:57;;;;;;;2.40;1.52;;;;;;;;;;4909322;29;20047;-75
2024/02/13 02:02:32;;;;;;;3.00;1.67;;;;;;;;;;4909395;29;20047;-76
2024/02/13 02:05:07;;;;;;;;;;;;;;;;;;4909706;29;20048;-76
2024/02/13 02:07:43;;;;;;;5.50;2.22;;;;;;;;;;4909484;29;20318;-74
2024/02/13 02:10:14;;;;;;;7.93;2.40;;;;;;;;;;4908951;29;20047;-75
2024/02/13 02:12:49;;;;;;;4.88;1.70;;;;;;;;;;4909483;29;20048;-75
2024/02/13 02:15:20;;;;;;;4.43;1.80;;;;;;;;;;4909050;29;20516;-75
2024/02/13 02:17:54;;;;;;;6.68;2.47;;;;;;;;;;4907766;29;20051;-75
2024/02/13 02:20:25;;;;;;;6.13;1.83;;;;;;;;;;4909362;29;20059;-75
2024/02/13 02:22:55;;;;;;;9.80;2.10;;;;;;;;;;4909125;29;20044;-76
2024/02/13 02:25:26;;;;;;;7.68;2.13;;;;;;;;;;4909141;29;20052;-75
2024/02/13 02:27:57;;;;;;;10.35;2.80;;;;;;;;;;4907557;29;20056;-76
2024/02/13 02:30:28;;;;;;;6.45;2.00;;;;;;;;;;4909115;29;20078;-76
2024/02/13 02:32:58;;;;;;;5.53;2.40;;;;;;;;;;4908856;29;20526;-73
2024/02/13 02:35:30;;;;;;;4.22;1.90;;;;;;;;;;4908972;29;20068;-72
2024/02/13 02:38:00;;;;;;;2.97;1.63;;;;;;;;;;4909242;29;20064;-72
2024/02/13 02:40:31;;;;;;;2.83;1.88;;;;;;;;;;4908849;29;20060;-73
2024/02/13 02:43:02;;;;;;;3.80;1.80;;;;;;;;;;4909037;29;20055;-72
2024/02/13 02:45:33;;;;;;;12.38;2.20;;;;;;;;;;4908948;29;20374;-73
2024/02/13 02:48:05;;;;;;;2.72;1.85;;;;;;;;;;4906565;29;20046;-73
2024/02/13 02:50:36;;;;;;;4.35;1.90;;;;;;;;;;4908450;29;20063;-74
2024/02/13 02:53:07;;;;;;;4.15;1.70;;;;;;;;;;4908964;29;20055;-73
2024/02/13 02:55:38;;;;;;;4.25;2.15;;;;;;;;;;4907462;29;20633;-74
2024/02/13 02:58:08;;;;;;;3.20;1.95;;;;;;;;;;4908116;29;20070;-74
2024/02/13 03:00:41;;;;;;;4.32;2.03;;;;;;;;;;4908103;29;20044;-75
2024/02/13 03:03:12;;;;;;;2.13;1.83;;;;;;;;;;4908200;29;20056;-75
2024/02/13 03:05:43;;;;;;;5.72;1.83;;;;;;;;;;4908157;29;20052;-73
2024/02/13 03:08:15;;;;;;;4.95;1.77;;;;;;;;;;4908892;29;20059;-73
2024/02/13 03:10:46;;;;;;;5.22;2.00;;;;;;;;;;4908403;29;20056;-72
2024/02/13 03:13:17;;;;;;;4.95;1.67;;;;;;;;;;4907845;29;20611;-73
2024/02/13 03:15:47;;;;;;;4.05;2.22;;;;;;;;;;4907642;29;20435;-72
2024/02/13 03:18:19;;;;;;;3.35;1.75;;;;;;;;;;4908473;29;20055;-73
2024/02/13 03:20:51;;;;;;;4.63;2.53;;;;;;;;;;4907455;29;20079;-74
2024/02/13 03:23:22;;;;;;;3.83;1.80;;;;;;;;;;4908130;29;20048;-74
2024/02/13 03:25:52;;;;;;;3.22;2.20;;;;;;;;;;4907617;29;20423;-74
2024/02/13 03:28:23;;;;;;;3.28;1.90;;;;;;;;;;4905289;29;20508;-75
2024/02/13 03:30:54;;;;;;;3.88;1.98;;;;;;;;;;4907611;29;20059;-73
2024/02/13 03:33:25;;;;;;;5.93;2.00;;;;;;;;;;4908102;29;20052;-75
2024/02/13 03:35:56;;;;;;;6.70;1.95;;;;;;;;;;4908104;29;20515;-74
2024/02/13 03:38:27;;;;;;;5.00;2.15;;;;;;;;;;4907542;29;20052;-75
2024/02/13 03:40:59;;;;;;;3.15;1.98;;;;;;;;;;4907751;29;20052;-75
2024/02/13 03:43:30;;;;;;;7.88;2.17;;;;;;;;;;4907652;29;20052;-74
2024/02/13 03:46:00;;;;;;;2.05;1.50;;;;;;;;;;4907467;29;20044;-74
2024/02/13 03:48:31;;;;;;;4.57;2.20;;;;;;;;;;4907312;29;20416;-73
2024/02/13 03:51:03;;;;;;;5.25;2.40;;;;;;;;;;4908101;29;20063;-74
2024/02/13 03:53:35;;;;;;;4.75;2.45;;;;;;;;;;4908260;29;20048;-73
2024/02/13 03:56:06;;;;;;;8.85;2.60;;;;;;;;;;4907484;29;20055;-75
2024/02/13 03:58:39;;;;;;;4.28;3.00;;;;;;;;;;4907525;29;20412;-74
2024/02/13 04:01:10;;;;;;;3.80;2.50;;;;;;;;;;4907067;29;20051;-73
2024/02/13 04:03:41;;;;;;;7.28;2.75;;;;;;;;;;4906088;29;20542;-74
2024/02/13 04:06:11;;;;;;;6.15;2.65;;;;;;;;;;4906702;29;20044;-72
2024/02/13 04:08:45;;;;;;;7.13;2.85;;;;;;;;;;4906920;29;20044;-73
2024/02/13 04:11:17;;;;;;;5.63;3.30;;;;;;;;;;4906764;29;20353;-73
2024/02/13 04:13:47;;;;;;;6.30;3.42;;;;;;;;;;4907325;29;20500;-74
2024/02/13 04:16:17;;;;;;;6.82;3.70;;;;;;;;;;4906628;29;20416;-74
2024/02/13 04:18:47;;;;;;;5.03;3.55;;;;;;;;;;4906775;29;20040;-73
2024/02/13 04:21:18;;;;;;;6.63;3.65;;;;;;;;;;4904211;29;20056;-73
2024/02/13 04:23:50;;;;;;;6.32;3.67;;;;;;;;;;4906947;29;20056;-74
2024/02/13 04:26:22;;;;;;;5.85;3.53;;;;;;;;;;4907022;29;20051;-73
2024/02/13 04:29:04;;;;;;;8.82;3.42;;;;;;;;;;4906991;29;20048;-72
2024/02/13 04:31:37;;;;;;;4.63;2.72;;;;;;;;;;4907078;29;20047;-73
2024/02/13 04:34:09;;;;;;;4.90;2.47;;;;;;;;;;4907092;29;20536;-72
2024/02/13 04:36:39;;;;;;;5.75;2.42;;;;;;;;;;4906776;29;20122;-73
2024/02/13 04:39:09;;;;;;;4.72;2.20;;;;;;;;;;4906290;29;20055;-73
2024/02/13 04:41:42;;;;;;;4.45;2.08;;;;;;;;;;4907082;29;20550;-73
2024/02/13 04:44:13;;;;;;;7.72;2.17;;;;;;;;;;4906380;29;20393;-73
2024/02/13 04:46:44;;;;;;;2.60;1.60;;;;;;;;;;4906449;29;20052;-74
2024/02/13 04:49:14;;;;;;;3.35;1.67;;;;;;;;;;4906660;29;20055;-73
2024/02/13 04:51:51;;;;;;;3.13;1.63;;;;;;;;;;4905934;29;20063;-73
2024/02/13 04:54:22;;;;;;;1.80;1.40;;;;;;;;;;4907436;29;20054;-75
2024/02/13 04:56:54;;;;;;;2.65;1.30;;;;;;;;;;4906117;29;20052;-74
2024/02/13 04:59:27;;;;;;;1.60;1.20;;;;;;;;;;4904990;29;20059;-75
2024/02/13 05:02:04;;;;;;;2.22;1.38;;;;;;;;;;4906986;29;20052;-74
2024/02/13 05:07:25;;;;;;;2.15;1.20;;;;;;;;;;4906311;29;20056;-74
2024/02/13 05:10:01;;;;;;;2.70;1.20;;;;;;;;;;4906325;29;20048;-74
2024/02/13 05:12:32;;;;;;;;;;;;;;;;;;4905067;29;20546;-72
2024/02/13 05:15:02;;;;;;;2.50;1.10;;;;;;;;;;4906481;29;19949;-72
2024/02/13 05:17:35;;;;;;;2.65;1.58;;;;;;;;;;4906166;29;20756;-72
2024/02/13 05:20:11;;;;;;;2.90;1.20;;;;;;;;;;4906512;29;20048;-71
2024/02/13 05:22:42;;;;;;;1.85;1.10;;;;;;;;;;4905844;29;20063;-72
2024/02/13 05:25:14;;;;;;;8.50;1.50;;;;;;;;;;4906251;29;20056;-73
2024/02/13 05:27:44;;;;;;;3.38;1.50;;;;;;;;;;4906197;29;20048;-72
2024/02/13 05:30:15;;;;;;;3.08;1.30;;;;;;;;;;4904402;29;20056;-74
2024/02/13 05:32:46;;;;;;;7.00;1.90;;;;;;;;;;4906302;29;20044;-73
2024/02/13 05:35:18;;;;;;;5.18;1.77;;;;;;;;;;4906068;29;20096;-73
2024/02/13 05:37:51;;;;;;;3.35;1.92;;;;;;;;;;4905630;29;20056;-73
2024/02/13 05:40:22;;;;;;;3.75;2.13;;;;;;;;;;4905750;29;20051;-74
2024/02/13 05:42:54;;;;;;;7.00;2.40;;;;;;;;;;4905330;29;20044;-75
2024/02/13 05:45:25;;;;;;;5.57;2.63;;;;;;;;;;4906635;29;20496;-73
2024/02/13 05:47:55;;;;;;;7.60;2.50;;;;;;;;;;4906226;29;20559;-73
2024/02/13 05:50:27;;;;;;;4.30;2.58;;;;;;;;;;4906246;29;20401;-73
2024/02/13 05:52:57;;;;;;;5.07;2.40;;;;;;;;;;4906193;29;20060;-73
2024/02/13 05:55:28;;;;;;;4.65;2.50;;;;;;;;;;4906335;29;20063;-74
2024/02/13 05:57:59;;;;;;;6.63;2.67;;;;;;;;;;4905868;29;20531;-73
2024/02/13 06:00:31;;;;;;;5.32;2.80;;;;;;;;;;4905182;29;20550;-74
2024/02/13 06:03:05;;;;;;;7.43;2.88;;;;;;;;;;4905561;29;20063;-75
2024/02/13 06:05:35;;;;;;;11.40;3.08;;;;;;;;;;4905614;29;20051;-74
2024/02/13 06:08:07;;;;;;;6.15;2.95;;;;;;;;;;4905709;29;20048;-75
2024/02/13 06:10:39;;;;;;;5.43;2.90;;;;;;;;;;4905487;29;20056;-74
2024/02/13 06:13:10;;;;;;;6.07;3.13;;;;;;;;;;4905456;29;20542;-74
2024/02/13 06:15:40;;;;;;;9.05;2.92;;;;;;;;;;4903962;29;20068;-75
2024/02/13 06:18:11;;;;;;;6.63;3.10;;;;;;;;;;4905052;29;20052;-74
2024/02/13 06:20:42;;;;;;;4.10;3.10;;;;;;;;;;4905229;29;20500;-75
2024/02/13 06:23:12;;;;;;;5.80;2.88;;;;;;;;;;4905785;29;20558;-76
2024/02/13 06:25:42;;;;;;;4.18;2.85;;;;;;;;;;4909091;29;20051;-74
2024/02/13 06:28:14;;;;;;;8.20;2.88;;;;;;;;;;4909069;29;20044;-74
2024/02/13 06:30:47;;;;;;;5.72;2.55;;;;;;;;;;4908604;29;20048;-75
2024/02/13 06:33:17;;;;;;;4.82;3.08;;;;;;;;;;4908546;29;20439;-74
2024/02/13 06:35:48;;;;;;;5.93;2.88;;;;;;;;;;4909219;29;20056;-75
2024/02/13 06:38:20;;;;;;;7.90;2.70;;;;;;;;;;4909431;29;20055;-74
2024/02/13 06:40:55;;;;;;;7.72;2.75;;;;;;;;;;4908269;29;20520;-73
2024/02/13 06:43:26;;;;;;;5.70;3.35;;;;;;;;;;4906254;29;20056;-74
2024/02/13 06:45:57;;;;;;;7.10;3.65;;;;;;;;;;4908785;29;20407;-75
2024/02/13 06:48:27;;;;;;;5.90;2.90;;;;;;;;;;4908249;29;20048;-74
2024/02/13 06:50:58;;;;;;;5.22;2.88;;;;;;;;;;4907181;29;20500;-74
2024/02/13 06:53:29;;;;;;;5.50;3.13;;;;;;;;;;4908477;29;20048;-74
2024/02/13 06:56:01;;;;;;;4.47;2.90;;;;;;;;;;4908112;29;20059;-74
2024/02/13 06:58:31;;;;;;;5.43;2.92;;;;;;;;;;4906684;29;20059;-73
2024/02/13 07:01:02;;;;;;;5.38;2.90;;;;;;;;;;4907587;29;20056;-75
2024/02/13 07:03:33;;;;;;;8.30;2.70;;;;;;;;;;4908519;29;20056;-74
2024/02/13 07:06:04;;;;;;;4.60;2.88;;;;;;;;;;4908490;29;20594;-75
2024/02/13 07:08:35;;;;;;;7.15;2.78;;;;;;;;;;4907873;29;20048;-75
2024/02/13 07:11:07;;;;;;;4.85;2.85;;;;;;;;;;4908724;29;20545;-74
2024/02/13 07:13:37;;;;;;;5.15;2.75;;;;;;;;;;4908141;29;20507;-75
2024/02/13 07:16:07;;;;;;;5.20;2.97;;;;;;;;;;4906679;29;20507;-74
2024/02/13 07:18:39;;;;;;;5.82;2.92;;;;;;;;;;4907730;29;20508;-75
2024/02/13 07:21:10;;;;;;;6.82;2.67;;;;;;;;;;4908159;29;20056;-75
2024/02/13 07:23:41;;;;;;;6.38;3.20;;;;;;;;;;4907763;29;20408;-75
2024/02/13 07:26:12;;;;;;;5.03;2.70;;;;;;;;;;4907920;29;20056;-74
2024/02/13 07:28:42;;;;;;;3.97;2.50;;;;;;;;;;4907786;29;20059;-74
2024/02/13 07:31:19;;;;;;;6.22;2.75;;;;;;;;;;4908125;29;20059;-76
2024/02/13 07:33:48;;;;;;;;;;;;;;;;;;4908337;29;20044;-75
2024/02/13 07:36:19;;;;;;;6.90;3.10;;;;;;;;;;4907518;29;19927;-74
2024/02/13 07:38:51;;;;;;;3.65;2.80;;;;;;;;;;4907484;29;20063;-76
2024/02/13 07:41:23;;;;;;;6.22;2.60;;;;;;;;;;4907573;29;20699;-74
2024/02/13 07:43:53;;;;;;;5.25;2.63;;;;;;;;;;4906304;29;20060;-75
2024/02/13 07:46:23;;;;;;;5.05;2.85;;;;;;;;;;4907788;29;20048;-75
2024/02/13 07:48:55;;;;;;;6.47;2.60;;;;;;;;;;4907377;29;20063;-75
2024/02/13 07:51:26;;;;;;;4.53;3.28;;;;;;;;;;4907468;29;20395;-76
2024/02/13 07:53:57;;;;;;;7.28;2.88;;;;;;;;;;4907448;29;20814;-75
2024/02/13 07:56:31;;;;;;;4.35;2.65;;;;;;;;;;4907608;29;20052;-75
2024/02/13 07:59:02;;;;;;;4.57;3.10;;;;;;;;;;4907446;29;20048;-75
2024/02/13 08:01:33;;;;;;;5.90;2.38;;;;;;;;;;4907758;29;20052;-75
2024/02/13 08:04:04;;;;;;;5.05;2.70;;;;;;;;;;4907654;29;20056;-75
2024/02/13 08:06:37;;;;;;;3.67;2.45;;;;;;;;;;4907412;29;20052;-76
2024/02/13 08:09:08;;;;;;;6.68;3.58;;;;;;;;;;4906672;29;20420;-77
2024/02/13 08:11:41;;;;;;;5.22;3.25;;;;;;;;;;4906725;29;20060;-76
2024/02/13 08:14:11;;;;;;;7.10;3.38;;;;;;;;;;4906705;29;20420;-76
2024/02/13 08:16:41;;;;;;;7.55;3.10;;;;;;;;;;4906816;29;20048;-75
2024/02/13 08:19:12;;;;;;;4.95;3.22;;;;;;;;;;4906315;29;20095;-75
2024/02/13 08:21:44;;;;;;;7.80;3.10;;;;;;;;;;4906311;29;20060;-75
2024/02/13 08:24:15;;;;;;;5.68;2.83;;;;;;;;;;4906541;29;20048;-75
2024/02/13 08:26:47;;;;;;;5.50;2.92;;;;;;;;;;4906049;29;20055;-75
2024/02/13 08:29:18;;;;;;;6.72;3.60;;;;;;;;;;4907201;29;20730;-75
2024/02/13 08:31:50;;;;;;;6.50;3.50;;;;;;;;;;4906992;29;20051;-75
2024/02/13 08:34:22;;;;;;;6.35;3.20;;;;;;;;;;4906737;29;20055;-76
2024/02/13 08:36:55;;;;;;;5.32;3.60;;;;;;;;;;4906702;29;20060;-75
2024/02/13 08:39:25;;;;;;;8.13;3.85;;;;;;;;;;4906583;29;20055;-74
2024/02/13 08:41:58;;;;;;;8.45;3.78;;;;;;;;;;4906959;29;20056;-75
2024/02/13 08:44:32;;;;;;;6.13;3.75;;;;;;;;;;4907329;29;20043;-77
2024/02/13 08:47:02;;;;;;;6.07;3.65;;;;;;;;;;4907326;29;20051;-74
2024/02/13 08:49:33;;;;;;;8.52;3.88;;;;;;;;;;4907601;29;20079;-75
2024/02/13 08:52:05;;;;;;;5.80;3.33;;;;;;;;;;4906624;29;20546;-74
2024/02/13 08:54:36;;;;;;;8.30;3.72;;;;;;;;;;4907232;29;20044;-76
2024/02/13 08:57:06;;;;;;;6.97;3.70;;;;;;;;;;4907545;29;20526;-75
2024/02/13 08:59:36;;;;;;;6.57;3.83;;;;;;;;;;4907469;29;20055;-75
2024/02/13 09:02:09;;;;;;;5.53;3.95;;;;;;;;;;4907073;29;20051;-76
2024/02/13 09:04:40;;;;;;;5.22;3.60;;;;;;;;;;4907233;29;20064;-74
2024/02/13 09:07:10;;;;;;;5.28;3.70;;;;;;;;;;4905598;29;20063;-75
2024/02/13 09:09:41;;;;;;;10.07;3.95;;;;;;;;;;4906885;29;20059;-75
2024/02/13 09:12:11;;;;;;;10.13;4.03;;;;;;;;;;4903908;29;20048;-75
2024/02/13 09:14:43;;;;;;;7.00;3.38;;;;;;;;;;4905305;29;20079;-76
2024/02/13 09:17:13;;;;;;;7.25;3.60;;;;;;;;;;4905968;29;20056;-76
2024/02/13 09:19:44;;;;;;;4.32;3.08;;;;;;;;;;4906277;29;20060;-75
2024/02/13 09:22:16;;;;;;;7.47;3.22;;;;;;;;;;4907111;29;20044;-75
2024/02/13 09:24:50;;;;;;;4.20;2.92;;;;;;;;;;4905143;29;20056;-76
2024/02/13 09:27:23;;;;;;;4.63;2.90;;;;;;;;;;4905810;29;20052;-75
2024/02/13 09:29:53;;;;;;;6.72;3.03;;;;;;;;;;4905700;29;20056;-75
2024/02/13 09:32:24;;;;;;;6.28;3.20;;;;;;;;;;4905878;29;20048;-75
2024/02/13 09:34:57;;;;;;;5.88;3.67;;;;;;;;;;4905811;29;20048;-74
2024/02/13 09:37:28;;;;;;;6.80;2.92;;;;;;;;;;4905973;29;20056;-76
2024/02/13 09:39:58;;;;;;;4.07;2.90;;;;;;;;;;4905149;29;20064;-75
2024/02/13 09:42:29;;;;;;;10.57;3.17;;;;;;;;;;4905782;29;20067;-76
2024/02/13 09:45:02;;;;;;;6.22;2.80;;;;;;;;;;4905696;29;20052;-75
2024/02/13 09:47:36;;;;;;;4.88;2.80;;;;;;;;;;4905996;29;20048;-75
2024/02/13 09:50:12;;;;;;;5.90;3.00;;;;;;;;;;4905237;29;20776;-74
2024/02/13 09:52:51;;;;;;;5.00;3.33;;;;;;;;;;4905955;29;20416;-75
2024/02/13 09:55:22;;;;;;;6.43;3.35;;;;;;;;;;4905825;29;20051;-75
2024/02/13 09:57:52;;;;;;;5.20;2.78;;;;;;;;;;4906996;29;20060;-74
2024/02/13 10:00:23;;;;;;;6.78;3.00;;;;;;;;;;4907229;29;20056;-74
2024/02/13 10:02:55;;;;;;;6.32;3.70;;;;;;;;;;4908533;29;20394;-76
2024/02/13 10:05:26;;;;;;;4.95;3.70;;;;;;;;;;4909873;29;20141;-75
2024/02/13 10:07:56;;;;;;;7.10;3.38;;;;;;;;;;4910041;29;20052;-75
2024/02/13 10:10:29;;;;;;;6.50;3.75;;;;;;;;;;4907827;29;20060;-76
2024/02/13 10:13:00;;;;;;;8.77;3.90;;;;;;;;;;4909233;29;20052;-75
2024/02/13 10:15:43;;;;;;;5.68;3.53;;;;;;;;;;4908907;29;20058;-74
2024/02/13 10:18:14;;;;;;;8.48;3.70;;;;;;;;;;4908925;29;20044;-76
2024/02/13 10:20:46;;;;;;;5.32;3.15;;;;;;;;;;4909175;29;20508;-75
2024/02/13 10:23:23;;;;;;;8.68;3.63;;;;;;;;;;4908538;29;20424;-75
2024/02/13 10:25:54;;;;;;;4.18;3.22;;;;;;;;;;4908620;29;20060;-76
2024/02/13 10:28:25;;;;;;;5.78;3.15;;;;;;;;;;4908918;29;20056;-76
2024/02/13 10:30:55;;;;;;;5.57;3.70;;;;;;;;;;4909246;29;20056;-74
2024/02/13 10:33:27;;;;;;;7.28;3.40;;;;;;;;;;4908913;29;20052;-74
2024/02/13 10:35:59;;;;;;;6.00;4.05;;;;;;;;;;4909254;29;20040;-75
2024/02/13 10:38:31;;;;;;;8.52;3.83;;;;;;;;;;4908058;29;20412;-77
2024/02/13 10:41:08;;;;;;;7.20;3.90;;;;;;;;;;4909308;29;20052;-75
2024/02/13 10:43:39;;;;;;;5.03;3.60;;;;;;;;;;4906821;29;20059;-73
2024/02/13 10:46:14;;;;;;;6.47;3.65;;;;;;;;;;4907254;29;20059;-74
2024/02/13 10:49:26;;;;;;;8.25;4.00;;;;;;;;;;4909159;29;20063;-75
2024/02/13 10:51:59;;;;;;;5.97;4.30;;;;;;;;;;4858129;29;20539;-76
2024/02/13 10:54:32;;;;;;;9.55;5.78;;;;;;;;;;4908703;29;20432;-75
2024/02/13 10:57:06;;;;;;;9.52;5.30;;;;;;;;;;4906468;29;20056;-74
2024/02/13 10:59:39;;;;;;;6.65;4.65;;;;;;;;;;4908538;29;20516;-76
2024/02/13 11:02:15;;;;;;;7.78;5.43;;;;;;;;;;4908692;29;20055;-75
2024/02/13 11:04:48;;;;;;;7.65;4.60;;;;;;;;;;4908112;29;20055;-74
2024/02/13 11:07:20;;;;;;;6.13;4.38;;;;;;;;;;4908082;29;20048;-74
2024/02/13 11:09:52;;;;;;;4.90;3.60;;;;;;;;;;4906940;29;20055;-75
2024/02/13 11:12:24;;;;;;;7.90;4.13;;;;;;;;;;4908544;29;20067;-73
2024/02/13 11:15:07;;;;;;;6.55;4.40;;;;;;;;;;4908194;29;20040;-75
2024/02/13 11:17:58;;;;;;;11.70;5.13;;;;;;;;;;4907769;29;20056;-81
2024/02/13 11:20:29;;;;;;;8.68;5.05;;;;;;;;;;4908318;29;20048;-76
2024/02/13 11:23:00;;;;;;;9.68;5.70;;;;;;;;;;4907920;29;20048;-77
2024/02/13 11:25:39;;;;;;;8.93;4.85;;;;;;;;;;4908100;29;20059;-78
2024/02/13 11:28:14;;;;;;;9.30;4.43;;;;;;;;;;4908015;29;20048;-77
2024/02/13 11:30:45;;;;;;;10.30;4.88;;;;;;;;;;4908564;29;20062;-76
2024/02/13 11:33:19;;;;;;;7.53;5.25;;;;;;;;;;4907313;29;20064;-76
2024/02/13 11:35:56;;;;;;;15.00;5.63;;;;;;;;;;4907763;29;20416;-76
2024/02/13 11:38:29;;;;;;;11.93;6.63;;;;;;;;;;4908005;29;20060;-77
2024/02/13 11:41:02;;;;;;;11.43;5.57;;;;;;;;;;4907225;29;20067;-76
2024/02/13 11:43:34;;;;;;;11.52;5.82;;;;;;;;;;4907523;29;20048;-76
2024/02/13 11:46:07;;;;;;;8.32;5.55;;;;;;;;;;4907518;29;20048;-77
2024/02/13 11:48:40;;;;;;;10.43;5.80;;;;;;;;;;4906979;29;20055;-75
2024/02/13 11:51:14;;;;;;;7.57;4.97;;;;;;;;;;4907259;29;20071;-76
2024/02/13 11:53:45;;;;;;;12.93;6.50;;;;;;;;;;4907479;29;20056;-76
2024/02/13 11:56:15;;;;;;;7.75;5.22;;;;;;;;;;4907331;29;20059;-75
2024/02/13 11:58:47;;;;;;;10.85;6.57;;;;;;;;;;4907359;29;20052;-76
2024/02/13 12:01:19;;;;;;;9.30;5.05;;;;;;;;;;4907541;29;20051;-77
2024/02/13 12:03:49;;;;;;;13.80;4.00;;;;;;;;;;4890243;29;20056;-79
2024/02/13 12:06:20;;;;;;;5.63;3.47;;;;;;;;;;4907085;29;20055;-79
2024/02/13 12:08:52;;;;;;;8.85;4.47;;;;;;;;;;4908161;29;20055;-79
2024/02/13 12:11:23;;;;;;;8.48;4.32;;;;;;;;;;4907571;29;20501;-78
2024/02/13 12:13:54;;;;;;;8.23;4.00;;;;;;;;;;4905705;29;20523;-78
2024/02/13 12:16:25;;;;;;;8.45;4.43;;;;;;;;;;4906548;29;20048;-78
2024/02/13 12:18:57;;;;;;;7.05;4.32;;;;;;;;;;4906899;29;20518;-77
2024/02/13 12:21:28;;;;;;;7.15;4.60;;;;;;;;;;4906357;29;20850;-77
2024/02/13 12:24:02;;;;;;;7.53;4.20;;;;;;;;;;4907315;29;20059;-77
2024/02/13 12:26:35;;;;;;;10.05;4.30;;;;;;;;;;4906688;29;20554;-77
2024/02/13 12:29:14;;;;;;;6.93;3.80;;;;;;;;;;4906614;29;20091;-77
2024/02/13 12:31:47;;;;;;;5.78;3.70;;;;;;;;;;4906421;29;20508;-76
2024/02/13 12:34:18;;;;;;;5.63;3.85;;;;;;;;;;4907126;29;20048;-76
2024/02/13 12:57:30;;;;;;;5.45;2.28;;;;;;;;;;5140884;27;20421;-81
2024/02/13 13:00:04;;;;;;;3.35;1.90;;;;;;;;;;5141392;27;20515;-78
2024/02/13 13:02:36;;;;;;;3.15;2.22;;;;;;;;;;5141097;27;20053;-80
2024/02/13 13:05:06;;;;;;;4.57;2.33;;;;;;;;;;5140886;27;20500;-77
2024/02/13 13:07:40;;;;;;;4.55;2.60;;;;;;;;;;5122408;27;20523;-78
2024/02/13 13:10:14;;;;;;;4.25;2.35;;;;;;;;;;5140943;27;20492;-79
2024/02/13 13:12:44;;;;;;;5.22;2.20;;;;;;;;;;5140254;27;20058;-78
2024/02/13 13:15:15;;;;;;;4.53;2.03;;;;;;;;;;5140036;27;20065;-76
2024/02/13 13:17:55;;;;;;;2.53;2.00;;;;;;;;;;5140440;27;20062;-78
2024/02/13 13:20:28;;;;;;;2.20;2.00;;;;;;;;;;5140307;27;20039;-77
2024/02/13 13:22:58;;;;;;;10.50;3.00;;;;;;;;;;5140493;27;20051;-78
2024/02/13 13:25:31;;;;;;;1.90;1.30;;;;;;;;;;5122204;27;20047;-77
2024/02/13 13:28:06;;;;;;;1.88;1.40;;;;;;;;;;5140372;27;20047;-79
2024/02/13 13:30:45;;;;;;;3.00;1.23;;;;;;;;;;5121368;27;20047;-77
2024/02/13 13:33:19;;;;;;;2.65;1.25;;;;;;;;;;5120508;27;20051;-79
2024/02/13 13:35:50;;;;;;;1.60;1.20;;;;;;;;;;5139701;27;20055;-78
2024/02/13 13:38:21;;;;;;;1.60;1.00;;;;;;;;;;5139870;27;20043;-78
2024/02/13 13:41:01;;;;;;;1.50;1.30;;;;;;;;;;5140224;27;20046;-79
2024/02/13 13:43:31;;;;;;;1.25;1.10;;;;;;;;;;5140146;27;20042;-80
2024/02/13 13:46:01;;;;;;;1.10;1.00;;;;;;;;;;5140061;27;20046;-78
2024/02/13 13:48:34;;;;;;;1.58;1.30;;;;;;;;;;5140518;27;20054;-77
2024/02/13 13:51:07;;;;;;;2.60;1.15;;;;;;;;;;5139825;27;20405;-79
2024/02/13 13:53:40;;;;;;;2.50;0.80;;;;;;;;;;5140408;27;20430;-80
2024/02/13 13:56:10;;;;;;;1.10;1.10;;;;;;;;;;5139996;27;20059;-78
2024/02/13 13:58:42;;;;;;;1.73;1.10;;;;;;;;;;5125248;27;20043;-78
2024/02/13 14:01:12;;;;;;;1.70;1.25;;;;;;;;;;5126071;27;20501;-80
2024/02/13 14:03:43;;;;;;;2.78;1.13;;;;;;;;;;5125827;27;20121;-78
2024/02/13 14:06:14;;;;;;;3.15;0.98;;;;;;;;;;5125634;27;20039;-77
2024/02/13 14:08:44;;;;;;;2.30;1.10;;;;;;;;;;5125721;27;20047;-77
2024/02/13 14:11:20;;;;;;;2.67;1.08;;;;;;;;;;5124144;27;20051;-78
2024/02/13 14:13:52;;;;;;;1.50;0.98;;;;;;;;;;5125808;27;20058;-77
2024/02/13 14:16:25;;;;;;;4.55;1.10;;;;;;;;;;5125360;27;20547;-79
2024/02/13 14:18:57;;;;;;;5.45;1.17;;;;;;;;;;5125505;27;20098;-77
2024/02/13 14:21:28;;;;;;;1.00;0.90;;;;;;;;;;5125507;27;20047;-78
2024/02/13 14:23:59;;;;;;;2.13;0.90;;;;;;;;;;5123505;27;20656;-77
2024/02/13 14:26:34;;;;;;;2.55;1.08;;;;;;;;;;5125522;27;20047;-78
2024/02/13 14:29:04;;;;;;;1.27;1.10;;;;;;;;;;5125904;27;20047;-78
2024/02/13 14:31:35;;;;;;;1.52;1.25;;;;;;;;;;5125484;27;20779;-79
2024/02/13 14:34:05;;;;;;;4.75;1.02;;;;;;;;;;5125922;27;21029;-80
2024/02/13 14:36:37;;;;;;;0.98;0.88;;;;;;;;;;5125240;27;20433;-79
2024/02/13 14:39:17;;;;;;;1.80;1.30;;;;;;;;;;5125081;27;20047;-79
2024/02/13 14:41:53;;;;;;;1.50;1.30;;;;;;;;;;5125192;27;20031;-77
2024/02/13 14:44:25;;;;;;;2.55;1.25;;;;;;;;;;5124909;27;20050;-76
2024/02/13 14:46:57;;;;;;;2.60;1.48;;;;;;;;;;5125321;27;20509;-77
2024/02/13 14:49:32;;;;;;;2.35;1.40;;;;;;;;;;5125016;27;20042;-76
2024/02/13 14:52:06;;;;;;;1.75;1.42;;;;;;;;;;5124730;27;20501;-76
2024/02/13 14:54:41;;;;;;;1.65;1.42;;;;;;;;;;5123883;27;20051;-76
2024/02/13 14:57:17;;;;;;;1.90;1.40;;;;;;;;;;5124285;27;20070;-77
2024/02/13 14:59:48;;;;;;;1.92;1.35;;;;;;;;;;5124713;27;20047;-76
2024/02/13 15:02:19;;;;;;;4.50;1.40;;;;;;;;;;5124600;27;20046;-77
2024/02/13 15:04:50;;;;;;;1.40;1.30;;;;;;;;;;5124659;27;20043;-81
2024/02/13 15:07:21;;;;;;;3.03;1.27;;;;;;;;;;5124872;27;20050;-79
2024/02/13 15:09:54;;;;;;;4.25;1.55;;;;;;;;;;5123948;27;20054;-78
2024/02/13 15:12:25;;;;;;;1.25;1.00;;;;;;;;;;5125196;27;20062;-78
2024/02/13 15:14:56;;;;;;;1.10;1.00;;;;;;;;;;5124361;27;20058;-78
2024/02/13 15:17:26;;;;;;;1.10;1.00;;;;;;;;;;5125132;27;20439;-78
2024/02/13 15:19:59;;;;;;;0.85;0.80;;;;;;;;;;5124910;27;20039;-77
2024/02/13 15:22:30;;;;;;;2.10;0.80;;;;;;;;;;5124002;27;20646;-78
2024/02/13 15:25:06;;;;;;;1.15;0.80;;;;;;;;;;5123866;27;20039;-77
2024/02/13 15:27:41;;;;;;;1.75;0.50;;;;;;;;;;5124303;27;20055;-79
2024/02/13 15:30:13;;;;;;;0.63;0.63;;;;;;;;;;5123884;27;20531;-77
2024/02/13 15:32:45;;;;;;;1.35;0.70;;;;;;;;;;5123799;27;20061;-77
2024/02/13 15:35:19;;;;;;;0.77;0.77;;;;;;;;;;5124237;27;20039;-79